createdAt,value
2016-05-08T00:00:53.447Z,22.6
2016-05-08T00:01:51.824Z,22.7
2016-05-08T00:02:49.749Z,22.7
2016-05-08T00:03:47.830Z,22.7
2016-05-08T00:04:48.865Z,22.7
2016-05-08T00:05:46.898Z,22.7
2016-05-08T00:06:44.932Z,22.7
2016-05-08T00:07:43.013Z,22.7
2016-05-08T00:08:41.000Z,22.7
2016-05-08T00:09:39.331Z,22.7
2016-05-08T00:10:37.584Z,22.6
2016-05-08T00:11:35.867Z,22.7
2016-05-08T00:12:34.151Z,22.6
2016-05-08T00:13:32.623Z,22.6
2016-05-08T00:14:33.656Z,22.5
2016-05-08T00:15:31.815Z,22.5
2016-05-08T00:16:30.112Z,22.6
2016-05-08T00:17:28.506Z,22.5
2016-05-08T00:18:26.665Z,22.5
2016-05-08T00:19:24.964Z,22.5
2016-05-08T00:20:23.248Z,22.5
2016-05-08T00:21:21.532Z,22.5
2016-05-08T00:22:19.941Z,22.5
2016-05-08T00:23:18.179Z,22.4
2016-05-08T00:24:19.188Z,22.4
2016-05-08T00:25:17.722Z,22.4
2016-05-08T00:26:16.271Z,22.4
2016-05-08T00:27:15.212Z,22.3
2016-05-08T00:28:13.854Z,22.3
2016-05-08T00:29:12.640Z,22.3
2016-05-08T00:30:11.438Z,22.3
2016-05-08T00:31:10.488Z,22.3
2016-05-08T00:32:09.585Z,22.3
2016-05-08T00:33:08.759Z,22.3
2016-05-08T00:34:09.667Z,22.2
2016-05-08T00:35:08.967Z,22.2
2016-05-08T00:36:08.267Z,22.2
2016-05-08T00:37:07.692Z,22.1
2016-05-08T00:38:06.882Z,22.1
2016-05-08T00:39:06.181Z,22.1
2016-05-08T00:40:05.481Z,22.1
2016-05-08T00:41:05.046Z,22
2016-05-08T00:42:04.611Z,22
2016-05-08T00:43:04.677Z,21.9
2016-05-08T00:44:05.601Z,21.9
2016-05-08T00:45:05.791Z,21.8
2016-05-08T00:46:06.622Z,21.8
2016-05-08T00:47:07.703Z,21.8
2016-05-08T00:48:09.034Z,21.7
2016-05-08T00:49:10.646Z,21.7
2016-05-08T00:50:08.399Z,21.7
2016-05-08T00:51:06.448Z,21.6
2016-05-08T00:52:04.732Z,21.6
2016-05-08T00:53:03.078Z,21.5
2016-05-08T00:54:04.191Z,21.5
2016-05-08T00:55:02.865Z,21.5
2016-05-08T00:56:01.665Z,21.5
2016-05-08T00:57:00.714Z,21.5
2016-05-08T00:57:59.779Z,21.4
2016-05-08T00:58:59.078Z,21.4
2016-05-08T00:59:58.379Z,21.3
2016-05-08T01:00:58.069Z,21.3
2016-05-08T01:01:57.603Z,21.3
2016-05-08T01:02:57.120Z,21.3
2016-05-08T01:03:58.124Z,21.3
2016-05-08T01:04:57.939Z,21.3
2016-05-08T01:05:57.504Z,21.3
2016-05-08T01:06:56.804Z,21.3
2016-05-08T01:07:55.837Z,21.2
2016-05-08T01:08:54.667Z,21.2
2016-05-08T01:09:53.327Z,21.2
2016-05-08T01:10:51.627Z,21.2
2016-05-08T01:11:49.536Z,21.2
2016-05-08T01:12:47.820Z,21.2
2016-05-08T01:13:48.510Z,21.2
2016-05-08T01:14:46.325Z,21.2
2016-05-08T01:15:47.766Z,21.2
2016-05-08T01:16:49.097Z,21.3
2016-05-08T01:17:50.442Z,21.3
2016-05-08T01:18:51.758Z,21.3
2016-05-08T01:19:53.088Z,21.3
2016-05-08T01:20:54.419Z,21.3
2016-05-08T01:21:55.875Z,21.3
2016-05-08T01:22:56.878Z,21.3
2016-05-08T01:23:57.912Z,21.3
2016-05-08T01:24:58.994Z,21.3
2016-05-08T01:25:59.808Z,21.3
2016-05-08T01:27:00.639Z,21.3
2016-05-08T01:28:01.469Z,21.3
2016-05-08T01:29:02.286Z,21.3
2016-05-08T01:30:03.116Z,21.3
2016-05-08T01:31:04.057Z,21.3
2016-05-08T01:32:04.809Z,21.3
2016-05-08T01:33:05.656Z,21.3
2016-05-08T01:34:06.674Z,21.3
2016-05-08T01:35:07.505Z,21.3
2016-05-08T01:36:08.335Z,21.3
2016-05-08T01:37:09.151Z,21.3
2016-05-08T01:38:10.090Z,21.3
2016-05-08T01:39:10.922Z,21.3
2016-05-08T01:40:11.737Z,21.3
2016-05-08T01:41:12.568Z,21.3
2016-05-08T01:42:13.382Z,21.2
2016-05-08T01:43:14.151Z,21.2
2016-05-08T01:44:15.295Z,21.2
2016-05-08T01:45:16.016Z,21.2
2016-05-08T01:46:16.940Z,21.2
2016-05-08T01:47:17.646Z,21.2
2016-05-08T01:48:18.587Z,21.2
2016-05-08T01:49:19.292Z,21.2
2016-05-08T01:50:20.123Z,21.2
2016-05-08T01:51:20.939Z,21.1
2016-05-08T01:52:21.894Z,21.1
2016-05-08T01:53:22.647Z,21.1
2016-05-08T01:54:23.790Z,21.1
2016-05-08T01:55:24.497Z,21.1
2016-05-08T01:56:25.436Z,21.1
2016-05-08T01:57:26.158Z,21.1
2016-05-08T01:58:26.972Z,21.1
2016-05-08T01:59:27.788Z,21.1
2016-05-08T02:00:28.869Z,21.1
2016-05-08T02:01:29.950Z,21.1
2016-05-08T02:02:31.156Z,21
2016-05-08T02:03:32.174Z,21
2016-05-08T02:04:33.191Z,21
2016-05-08T02:05:34.288Z,21
2016-05-08T02:06:35.466Z,21
2016-05-08T02:07:36.422Z,20.9
2016-05-08T02:08:37.518Z,20.9
2016-05-08T02:09:38.848Z,21
2016-05-08T02:10:40.196Z,20.9
2016-05-08T02:11:41.511Z,20.9
2016-05-08T02:12:42.841Z,20.9
2016-05-08T02:13:44.235Z,20.9
2016-05-08T02:14:45.253Z,20.9
2016-05-08T02:15:43.037Z,20.9
2016-05-08T02:16:40.820Z,20.9
2016-05-08T02:17:38.980Z,20.9
2016-05-08T02:18:37.139Z,20.9
2016-05-08T02:19:35.439Z,20.9
2016-05-08T02:20:33.985Z,20.9
2016-05-08T02:21:32.503Z,20.9
2016-05-08T02:22:31.287Z,20.9
2016-05-08T02:23:30.150Z,20.9
2016-05-08T02:24:31.184Z,20.8
2016-05-08T02:25:30.233Z,20.8
2016-05-08T02:26:29.283Z,20.8
2016-05-08T02:27:28.722Z,20.8
2016-05-08T02:28:27.913Z,20.8
2016-05-08T02:29:27.322Z,20.8
2016-05-08T02:30:26.762Z,20.8
2016-05-08T02:31:26.327Z,20.8
2016-05-08T02:32:25.736Z,20.8
2016-05-08T02:33:25.099Z,20.8
2016-05-08T02:34:25.991Z,20.8
2016-05-08T02:35:24.791Z,20.8
2016-05-08T02:36:23.607Z,20.8
2016-05-08T02:37:22.155Z,20.8
2016-05-08T02:38:20.455Z,20.8
2016-05-08T02:39:18.740Z,20.8
2016-05-08T02:40:16.773Z,20.8
2016-05-08T02:41:14.932Z,20.8
2016-05-08T02:42:13.796Z,20.8
2016-05-08T02:43:10.501Z,20.9
2016-05-08T02:44:11.567Z,20.9
2016-05-08T02:45:09.399Z,20.9
2016-05-08T02:46:07.231Z,20.9
2016-05-08T02:47:08.854Z,20.9
2016-05-08T02:48:10.453Z,20.9
2016-05-08T02:49:12.051Z,20.9
2016-05-08T02:50:13.680Z,20.9
2016-05-08T02:51:15.262Z,21
2016-05-08T02:52:16.853Z,21
2016-05-08T02:53:18.627Z,21
2016-05-08T02:54:19.653Z,21
2016-05-08T02:55:20.864Z,21
2016-05-08T02:56:22.200Z,21
2016-05-08T02:57:23.535Z,21
2016-05-08T02:58:24.868Z,21
2016-05-08T02:59:26.201Z,21
2016-05-08T03:00:27.535Z,21
2016-05-08T03:01:28.868Z,21
2016-05-08T03:02:30.200Z,21
2016-05-08T03:03:31.718Z,21
2016-05-08T03:04:32.612Z,21
2016-05-08T03:05:34.069Z,21
2016-05-08T03:06:35.276Z,21
2016-05-08T03:07:36.735Z,20.9
2016-05-08T03:08:38.067Z,21
2016-05-08T03:09:39.273Z,21
2016-05-08T03:10:40.604Z,20.9
2016-05-08T03:11:41.935Z,20.9
2016-05-08T03:12:43.391Z,20.9
2016-05-08T03:13:44.659Z,20.9
2016-05-08T03:14:45.677Z,20.9
2016-05-08T03:15:47.007Z,20.9
2016-05-08T03:16:48.465Z,20.9
2016-05-08T03:17:49.935Z,20.9
2016-05-08T03:18:51.516Z,20.9
2016-05-08T03:19:53.112Z,20.9
2016-05-08T03:20:54.694Z,20.9
2016-05-08T03:21:56.274Z,20.9
2016-05-08T03:22:54.184Z,20.9
2016-05-08T03:23:55.701Z,20.9
2016-05-08T03:24:56.720Z,20.9
2016-05-08T03:25:54.503Z,20.8
2016-05-08T03:26:56.117Z,20.8
2016-05-08T03:27:54.009Z,20.8
2016-05-08T03:28:51.668Z,20.8
2016-05-08T03:29:49.452Z,20.8
2016-05-08T03:30:47.237Z,20.8
2016-05-08T03:31:45.019Z,20.8
2016-05-08T03:32:43.054Z,20.8
2016-05-08T03:33:41.150Z,20.8
2016-05-08T03:34:42.168Z,20.8
2016-05-08T03:35:40.469Z,20.8
2016-05-08T03:36:38.971Z,20.7
2016-05-08T03:37:37.880Z,20.7
2016-05-08T03:38:36.552Z,20.7
2016-05-08T03:39:35.351Z,20.7
2016-05-08T03:40:34.151Z,20.7
2016-05-08T03:41:32.950Z,20.7
2016-05-08T03:42:31.952Z,20.7
2016-05-08T03:43:30.972Z,20.7
2016-05-08T03:45:30.680Z,20.7
2016-05-08T03:46:29.588Z,20.7
2016-05-08T03:47:28.295Z,20.7
2016-05-08T03:48:27.063Z,20.6
2016-05-08T03:49:25.879Z,20.6
2016-05-08T03:50:24.662Z,20.6
2016-05-08T03:51:23.462Z,20.6
2016-05-08T03:52:22.261Z,20.6
2016-05-08T03:53:21.107Z,20.6
2016-05-08T03:54:22.142Z,20.6
2016-05-08T03:55:20.926Z,20.6
2016-05-08T03:56:19.725Z,20.6
2016-05-08T03:57:19.259Z,20.6
2016-05-08T03:58:17.840Z,20.6
2016-05-08T03:59:17.248Z,20.6
2016-05-08T04:00:16.439Z,20.6
2016-05-08T04:01:15.864Z,20.6
2016-05-08T04:02:14.804Z,20.6
2016-05-08T04:03:14.025Z,20.6
2016-05-08T04:04:14.919Z,20.7
2016-05-08T04:05:13.749Z,20.6
2016-05-08T04:06:12.408Z,20.7
2016-05-08T04:07:10.958Z,20.7
2016-05-08T04:08:09.133Z,20.7
2016-05-08T04:09:07.432Z,20.7
2016-05-08T04:10:05.716Z,20.7
2016-05-08T04:11:04.016Z,20.7
2016-05-08T04:12:02.050Z,20.8
2016-05-08T04:13:00.161Z,20.8
2016-05-08T04:14:01.289Z,20.8
2016-05-08T04:14:59.323Z,20.9
2016-05-08T04:15:56.982Z,20.9
2016-05-08T04:16:54.782Z,20.9
2016-05-08T04:17:52.566Z,20.9
2016-05-08T04:18:50.349Z,20.9
2016-05-08T04:19:48.118Z,20.9
2016-05-08T04:20:46.027Z,20.9
2016-05-08T04:21:43.811Z,21
2016-05-08T04:22:41.532Z,20.9
2016-05-08T04:23:42.550Z,21
2016-05-08T04:24:40.475Z,21
2016-05-08T04:25:38.115Z,21
2016-05-08T04:26:35.900Z,21
2016-05-08T04:27:33.684Z,20.9
2016-05-08T04:28:31.468Z,21
2016-05-08T04:29:29.251Z,21
2016-05-08T04:30:30.847Z,21
2016-05-08T04:31:28.631Z,21
2016-05-08T04:32:26.463Z,20.9
2016-05-08T04:33:27.481Z,21
2016-05-08T04:34:25.280Z,21
2016-05-08T04:35:23.064Z,21
2016-05-08T04:36:20.863Z,20.9
2016-05-08T04:37:18.742Z,21
2016-05-08T04:38:16.400Z,20.9
2016-05-08T04:39:14.185Z,20.9
2016-05-08T04:40:11.968Z,21
2016-05-08T04:41:09.878Z,20.9
2016-05-08T04:42:07.599Z,20.9
2016-05-08T04:43:08.616Z,20.9
2016-05-08T04:44:06.401Z,20.9
2016-05-08T04:45:04.186Z,20.9
2016-05-08T04:46:02.093Z,20.9
2016-05-08T04:46:59.769Z,20.9
2016-05-08T04:47:57.818Z,20.9
2016-05-08T04:48:55.586Z,20.9
2016-05-08T04:49:53.370Z,20.9
2016-05-08T04:50:51.155Z,20.9
2016-05-08T04:51:49.251Z,20.9
2016-05-08T04:52:50.269Z,20.9
2016-05-08T04:53:48.303Z,20.9
2016-05-08T04:54:46.337Z,20.9
2016-05-08T04:55:44.386Z,20.9
2016-05-08T04:56:42.468Z,20.9
2016-05-08T04:57:40.564Z,20.9
2016-05-08T04:58:38.486Z,20.9
2016-05-08T04:59:36.644Z,20.9
2016-05-08T05:00:34.694Z,20.9
2016-05-08T05:01:32.915Z,20.9
2016-05-08T05:02:33.934Z,20.9
2016-05-08T05:03:32.218Z,20.9
2016-05-08T05:04:30.783Z,20.9
2016-05-08T05:05:29.317Z,20.9
2016-05-08T05:06:27.975Z,20.9
2016-05-08T05:07:26.385Z,20.9
2016-05-08T05:08:25.169Z,20.9
2016-05-08T05:09:23.984Z,20.8
2016-05-08T05:10:22.768Z,20.8
2016-05-08T05:11:21.646Z,20.9
2016-05-08T05:12:22.680Z,20.9
2016-05-08T05:13:21.213Z,20.9
2016-05-08T05:14:19.763Z,20.9
2016-05-08T05:15:18.047Z,20.9
2016-05-08T05:16:16.330Z,20.9
2016-05-08T05:17:14.630Z,20.9
2016-05-08T05:18:12.930Z,20.9
2016-05-08T05:19:11.370Z,20.9
2016-05-08T05:20:09.607Z,20.9
2016-05-08T05:21:07.594Z,21
2016-05-08T05:22:08.613Z,21.1
2016-05-08T05:23:06.646Z,21.1
2016-05-08T05:24:04.681Z,21.2
2016-05-08T05:25:02.840Z,21.2
2016-05-08T05:26:00.749Z,21.2
2016-05-08T05:26:58.782Z,21.3
2016-05-08T05:27:56.692Z,21.3
2016-05-08T05:28:54.350Z,21.3
2016-05-08T05:29:52.134Z,21.4
2016-05-08T05:30:49.981Z,21.4
2016-05-08T05:31:50.999Z,21.5
2016-05-08T05:32:48.783Z,21.5
2016-05-08T05:33:46.567Z,21.5
2016-05-08T05:34:44.367Z,21.6
2016-05-08T05:35:45.948Z,21.6
2016-05-08T05:36:47.528Z,21.7
2016-05-08T05:37:49.218Z,21.7
2016-05-08T05:38:50.689Z,21.7
2016-05-08T05:39:52.286Z,21.8
2016-05-08T05:40:53.789Z,21.8
2016-05-08T05:41:54.698Z,21.9
2016-05-08T05:42:56.013Z,21.9
2016-05-08T05:43:57.343Z,21.9
2016-05-08T05:44:58.674Z,22
2016-05-08T05:46:00.006Z,22
2016-05-08T05:47:01.352Z,22
2016-05-08T05:48:02.667Z,22.1
2016-05-08T05:49:04.107Z,22.1
2016-05-08T05:50:05.329Z,22.1
2016-05-08T05:51:06.456Z,22.1
2016-05-08T05:52:07.460Z,22.2
2016-05-08T05:53:08.540Z,22.2
2016-05-08T05:54:09.746Z,22.3
2016-05-08T05:55:10.560Z,22.3
2016-05-08T05:56:11.267Z,22.3
2016-05-08T05:57:12.081Z,22.4
2016-05-08T05:58:12.912Z,22.4
2016-05-08T05:59:13.853Z,22.4
2016-05-08T06:00:14.309Z,22.5
2016-05-08T06:01:14.936Z,22.5
2016-05-08T06:02:15.954Z,22.5
2016-05-08T06:03:16.286Z,22.6
2016-05-08T06:04:16.710Z,22.6
2016-05-08T06:05:16.901Z,22.7
2016-05-08T06:06:17.215Z,22.7
2016-05-08T06:07:17.530Z,22.7
2016-05-08T06:08:17.861Z,22.7
2016-05-08T06:09:17.927Z,22.8
2016-05-08T06:10:18.085Z,22.8
2016-05-08T06:11:18.120Z,22.8
2016-05-08T06:12:19.122Z,22.9
2016-05-08T06:13:19.047Z,22.9
2016-05-08T06:14:18.847Z,23
2016-05-08T06:15:18.536Z,23
2016-05-08T06:16:18.352Z,23
2016-05-08T06:17:18.151Z,23
2016-05-08T06:18:18.091Z,23.1
2016-05-08T06:19:17.782Z,23.2
2016-05-08T06:20:17.332Z,23.1
2016-05-08T06:21:16.943Z,23.2
2016-05-08T06:22:17.993Z,23.2
2016-05-08T06:23:17.635Z,23.3
2016-05-08T06:24:16.810Z,23.3
2016-05-08T06:25:16.110Z,23.3
2016-05-08T06:26:15.518Z,23.3
2016-05-08T06:27:14.835Z,23.3
2016-05-08T06:28:14.149Z,23.4
2016-05-08T06:29:13.481Z,23.4
2016-05-08T06:30:12.623Z,23.5
2016-05-08T06:31:11.986Z,23.4
2016-05-08T06:32:12.989Z,23.5
2016-05-08T06:33:12.287Z,23.5
2016-05-08T06:34:11.337Z,23.5
2016-05-08T06:35:10.497Z,23.5
2016-05-08T06:36:09.546Z,23.5
2016-05-08T06:37:08.470Z,23.6
2016-05-08T06:38:07.520Z,23.6
2016-05-08T06:39:06.569Z,23.6
2016-05-08T06:40:05.728Z,23.6
2016-05-08T06:41:04.466Z,23.7
2016-05-08T06:42:05.484Z,23.7
2016-05-08T06:43:04.300Z,23.7
2016-05-08T06:44:03.067Z,23.7
2016-05-08T06:45:01.852Z,23.7
2016-05-08T06:46:00.667Z,23.8
2016-05-08T06:46:59.466Z,23.7
2016-05-08T06:47:58.360Z,23.8
2016-05-08T06:48:57.035Z,23.8
2016-05-08T06:49:55.818Z,23.9
2016-05-08T06:50:54.680Z,23.9
2016-05-08T06:51:55.683Z,23.9
2016-05-08T06:52:54.530Z,23.9
2016-05-08T06:53:53.298Z,24
2016-05-08T06:54:51.832Z,24
2016-05-08T06:55:50.615Z,24
2016-05-08T06:56:49.149Z,24.1
2016-05-08T06:57:47.839Z,24.1
2016-05-08T06:58:46.232Z,24.1
2016-05-08T06:59:44.767Z,24.1
2016-05-08T07:00:43.488Z,24.2
2016-05-08T07:01:44.382Z,24.2
2016-05-08T07:02:42.712Z,24.3
2016-05-08T07:03:41.072Z,24.3
2016-05-08T07:04:39.231Z,24.3
2016-05-08T07:05:37.531Z,24.4
2016-05-08T07:06:35.798Z,24.4
2016-05-08T07:07:34.208Z,24.4
2016-05-08T07:08:32.381Z,24.5
2016-05-08T07:09:30.650Z,24.5
2016-05-08T07:10:28.997Z,24.6
2016-05-08T07:11:30.014Z,24.6
2016-05-08T07:12:28.299Z,24.7
2016-05-08T07:13:26.442Z,24.7
2016-05-08T07:14:24.383Z,24.8
2016-05-08T07:15:22.386Z,24.8
2016-05-08T07:16:20.544Z,24.9
2016-05-08T07:17:18.453Z,24.9
2016-05-08T07:18:16.221Z,24.9
2016-05-08T07:19:14.130Z,24.9
2016-05-08T07:20:11.836Z,25
2016-05-08T07:21:12.854Z,25
2016-05-08T07:22:10.624Z,25.1
2016-05-08T07:23:08.391Z,25.1
2016-05-08T07:24:06.175Z,25.2
2016-05-08T07:25:03.975Z,25.2
2016-05-08T07:26:05.540Z,25.3
2016-05-08T07:27:07.152Z,25.3
2016-05-08T07:28:08.827Z,25.3
2016-05-08T07:29:10.282Z,25.4
2016-05-08T07:30:11.800Z,25.4
2016-05-08T07:31:12.804Z,25.5
2016-05-08T07:32:14.150Z,25.5
2016-05-08T07:33:15.324Z,25.5
2016-05-08T07:34:16.765Z,25.5
2016-05-08T07:35:17.986Z,25.6
2016-05-08T07:36:19.301Z,25.5
2016-05-08T07:37:20.617Z,25.5
2016-05-08T07:38:21.948Z,25.6
2016-05-08T07:39:23.278Z,25.5
2016-05-08T07:40:24.671Z,25.5
2016-05-08T07:41:25.675Z,25.6
2016-05-08T07:42:26.989Z,25.6
2016-05-08T07:43:28.430Z,25.6
2016-05-08T07:44:29.635Z,25.6
2016-05-08T07:45:30.966Z,25.6
2016-05-08T07:46:32.281Z,25.6
2016-05-08T07:47:33.612Z,25.6
2016-05-08T07:48:34.958Z,25.7
2016-05-08T07:49:36.257Z,25.6
2016-05-08T07:50:37.635Z,25.7
2016-05-08T07:51:38.763Z,25.7
2016-05-08T07:52:40.094Z,25.7
2016-05-08T07:53:41.300Z,25.7
2016-05-08T07:54:42.740Z,25.7
2016-05-08T07:55:43.949Z,25.7
2016-05-08T07:56:45.388Z,25.7
2016-05-08T07:57:46.595Z,25.7
2016-05-08T07:58:47.910Z,25.7
2016-05-08T07:59:49.240Z,25.7
2016-05-08T08:00:50.743Z,25.7
2016-05-08T08:01:51.637Z,25.7
2016-05-08T08:02:53.092Z,25.6
2016-05-08T08:03:54.298Z,25.5
2016-05-08T08:04:55.614Z,25.5
2016-05-08T08:05:57.054Z,25.5
2016-05-08T08:06:58.275Z,25.4
2016-05-08T08:07:59.575Z,25.4
2016-05-08T08:09:00.906Z,25.3
2016-05-08T08:10:02.330Z,25.3
2016-05-08T08:11:03.598Z,25.3
2016-05-08T08:12:04.617Z,25.2
2016-05-08T08:13:05.931Z,25.2
2016-05-08T08:14:07.388Z,25.2
2016-05-08T08:15:08.844Z,25.1
2016-05-08T08:16:10.409Z,25.1
2016-05-08T08:17:11.989Z,25.1
2016-05-08T08:18:13.570Z,25
2016-05-08T08:19:15.136Z,25.1
2016-05-08T08:20:16.700Z,25
2016-05-08T08:21:14.532Z,25
2016-05-08T08:22:15.675Z,24.9
2016-05-08T08:23:13.458Z,24.9
2016-05-08T08:24:11.102Z,24.9
2016-05-08T08:25:08.886Z,24.9
2016-05-08T08:26:06.670Z,24.8
2016-05-08T08:27:04.438Z,24.8
2016-05-08T08:28:02.332Z,24.8
2016-05-08T08:28:59.991Z,24.8
2016-05-08T08:29:57.759Z,24.8
2016-05-08T08:30:55.590Z,24.8
2016-05-08T08:31:56.608Z,24.7
2016-05-08T08:32:54.642Z,24.7
2016-05-08T08:33:52.676Z,24.8
2016-05-08T08:34:50.959Z,24.7
2016-05-08T08:35:48.993Z,24.7
2016-05-08T08:36:47.403Z,24.7
2016-05-08T08:37:45.562Z,24.7
2016-05-08T08:38:43.843Z,24.7
2016-05-08T08:39:42.423Z,24.6
2016-05-08T08:40:40.973Z,24.6
2016-05-08T08:41:41.992Z,24.6
2016-05-08T08:42:40.542Z,24.6
2016-05-08T08:43:39.309Z,24.6
2016-05-08T08:44:38.358Z,24.5
2016-05-08T08:45:37.658Z,24.5
2016-05-08T08:46:37.067Z,24.5
2016-05-08T08:47:36.008Z,24.5
2016-05-08T08:48:35.666Z,24.5
2016-05-08T08:49:35.232Z,24.5
2016-05-08T08:50:34.969Z,24.5
2016-05-08T08:51:35.988Z,24.5
2016-05-08T08:52:36.396Z,24.5
2016-05-08T08:53:37.102Z,24.5
2016-05-08T08:54:37.932Z,24.5
2016-05-08T08:55:38.998Z,24.4
2016-05-08T08:56:40.079Z,24.4
2016-05-08T08:57:41.393Z,24.4
2016-05-08T08:58:42.975Z,24.4
2016-05-08T08:59:41.009Z,24.4
2016-05-08T09:00:39.105Z,24.4
2016-05-08T09:01:40.233Z,24.4
2016-05-08T09:02:38.392Z,24.3
2016-05-08T09:03:36.660Z,24.3
2016-05-08T09:04:35.443Z,24.3
2016-05-08T09:05:34.243Z,24.3
2016-05-08T09:06:33.278Z,24.3
2016-05-08T09:07:32.576Z,24.2
2016-05-08T09:08:31.768Z,24.3
2016-05-08T09:09:30.926Z,24.2
2016-05-08T09:10:30.022Z,24.2
2016-05-08T09:11:31.042Z,24.2
2016-05-08T09:12:30.606Z,24.1
2016-05-08T09:13:30.437Z,24.1
2016-05-08T09:14:30.845Z,24.1
2016-05-08T09:15:31.036Z,24.1
2016-05-08T09:16:31.461Z,24.1
2016-05-08T09:17:31.666Z,24.1
2016-05-08T09:18:32.341Z,24.1
2016-05-08T09:19:33.062Z,24
2016-05-08T09:20:34.175Z,24
2016-05-08T09:21:35.194Z,24
2016-05-08T09:22:36.258Z,24
2016-05-08T09:23:37.714Z,24
2016-05-08T09:24:38.904Z,23.9
2016-05-08T09:25:40.235Z,23.9
2016-05-08T09:26:41.832Z,23.9
2016-05-08T09:27:43.521Z,23.9
2016-05-08T09:28:41.180Z,23.9
2016-05-08T09:29:38.965Z,23.8
2016-05-08T09:30:37.046Z,23.8
2016-05-08T09:31:38.063Z,23.8
2016-05-08T09:32:36.223Z,23.8
2016-05-08T09:33:34.506Z,23.8
2016-05-08T09:34:32.682Z,23.7
2016-05-08T09:35:31.340Z,23.7
2016-05-08T09:36:29.748Z,23.7
2016-05-08T09:37:28.657Z,23.7
2016-05-08T09:38:27.364Z,23.7
2016-05-08T09:39:26.273Z,23.7
2016-05-08T09:40:24.978Z,23.7
2016-05-08T09:41:25.997Z,23.6
2016-05-08T09:42:25.125Z,23.6
2016-05-08T09:43:24.095Z,23.6
2016-05-08T09:44:23.145Z,23.6
2016-05-08T09:45:22.444Z,23.6
2016-05-08T09:46:21.744Z,23.5
2016-05-08T09:47:21.045Z,23.6
2016-05-08T09:48:20.469Z,23.5
2016-05-08T09:49:19.644Z,23.5
2016-05-08T09:50:19.255Z,23.5
2016-05-08T09:51:20.258Z,23.5
2016-05-08T09:52:20.183Z,23.5
2016-05-08T09:53:19.888Z,23.4
2016-05-08T09:54:19.688Z,23.4
2016-05-08T09:55:19.487Z,23.4
2016-05-08T09:56:19.303Z,23.4
2016-05-08T09:57:19.102Z,23.4
2016-05-08T09:58:18.949Z,23.4
2016-05-08T09:59:18.233Z,23.4
2016-05-08T10:00:16.844Z,23.3
2016-05-08T10:01:17.957Z,23.3
2016-05-08T10:02:19.537Z,23.3
2016-05-08T10:03:20.993Z,23.3
2016-05-08T10:04:22.590Z,23.3
2016-05-08T10:05:23.155Z,23.3
2016-05-08T10:06:23.720Z,23.3
2016-05-08T10:07:24.301Z,23.3
2016-05-08T10:08:24.726Z,23.2
2016-05-08T10:09:25.040Z,23.3
2016-05-08T10:10:25.293Z,23.2
2016-05-08T10:11:26.327Z,23.2
2016-05-08T10:12:26.626Z,23.1
2016-05-08T10:13:26.990Z,23.2
2016-05-08T10:14:27.366Z,23.1
2016-05-08T10:15:27.682Z,23.1
2016-05-08T10:16:27.903Z,23.1
2016-05-08T10:17:28.203Z,23.1
2016-05-08T10:18:28.768Z,23.1
2016-05-08T10:19:29.349Z,23.1
2016-05-08T10:20:29.961Z,23.1
2016-05-08T10:21:30.980Z,23.1
2016-05-08T10:22:31.044Z,23.1
2016-05-08T10:23:31.370Z,23
2016-05-08T10:24:31.420Z,23
2016-05-08T10:25:31.486Z,23
2016-05-08T10:26:31.285Z,23
2016-05-08T10:27:31.100Z,23
2016-05-08T10:28:30.915Z,23
2016-05-08T10:29:30.574Z,23
2016-05-08T10:30:29.827Z,23
2016-05-08T10:31:30.845Z,23
2016-05-08T10:32:30.144Z,23
2016-05-08T10:33:29.444Z,22.9
2016-05-08T10:34:28.760Z,22.9
2016-05-08T10:35:28.559Z,22.9
2016-05-08T10:36:28.374Z,23
2016-05-08T10:37:28.220Z,22.9
2016-05-08T10:38:28.098Z,22.9
2016-05-08T10:39:27.788Z,22.9
2016-05-08T10:40:27.650Z,23
2016-05-08T10:41:28.684Z,22.9
2016-05-08T10:42:28.234Z,22.9
2016-05-08T10:43:27.971Z,22.9
2016-05-08T10:44:27.348Z,22.9
2016-05-08T10:45:27.164Z,22.9
2016-05-08T10:46:27.214Z,22.9
2016-05-08T10:47:27.029Z,22.9
2016-05-08T10:48:26.828Z,22.9
2016-05-08T10:49:26.909Z,22.9
2016-05-08T10:50:26.803Z,22.9
2016-05-08T10:51:27.774Z,22.9
2016-05-08T10:52:27.589Z,22.9
2016-05-08T10:53:27.389Z,22.9
2016-05-08T10:54:27.203Z,22.9
2016-05-08T10:55:27.019Z,22.9
2016-05-08T10:56:26.944Z,22.9
2016-05-08T10:57:26.619Z,22.9
2016-05-08T10:58:26.433Z,22.9
2016-05-08T10:59:26.499Z,22.9
2016-05-08T11:00:26.877Z,22.9
2016-05-08T11:01:27.894Z,22.9
2016-05-08T11:02:28.460Z,22.9
2016-05-08T11:03:29.134Z,22.9
2016-05-08T11:04:29.590Z,22.9
2016-05-08T11:05:30.029Z,22.8
2016-05-08T11:06:30.235Z,22.9
2016-05-08T11:07:30.286Z,22.9
2016-05-08T11:08:30.351Z,22.8
2016-05-08T11:09:30.650Z,22.8
2016-05-08T11:10:31.028Z,22.9
2016-05-08T11:11:32.046Z,22.8
2016-05-08T11:12:32.362Z,22.8
2016-05-08T11:13:32.942Z,22.8
2016-05-08T11:14:33.507Z,22.8
2016-05-08T11:15:34.073Z,22.8
2016-05-08T11:16:34.638Z,22.8
2016-05-08T11:17:34.954Z,22.8
2016-05-08T11:18:35.268Z,22.8
2016-05-08T11:19:35.584Z,22.8
2016-05-08T11:20:35.961Z,22.9
2016-05-08T11:21:36.979Z,22.8
2016-05-08T11:22:37.403Z,22.8
2016-05-08T11:23:37.859Z,22.8
2016-05-08T11:24:38.691Z,22.9
2016-05-08T11:25:39.522Z,22.8
2016-05-08T11:26:40.071Z,22.8
2016-05-08T11:27:40.386Z,22.8
2016-05-08T11:28:40.202Z,22.8
2016-05-08T11:29:40.375Z,22.9
2016-05-08T11:30:40.628Z,22.9
2016-05-08T11:31:41.646Z,22.9
2016-05-08T11:32:41.978Z,22.9
2016-05-08T11:33:42.544Z,22.9
2016-05-08T11:34:43.233Z,22.9
2016-05-08T11:35:43.674Z,22.8
2016-05-08T11:36:44.113Z,22.8
2016-05-08T11:37:44.054Z,22.8
2016-05-08T11:38:44.119Z,22.8
2016-05-08T11:39:44.293Z,22.8
2016-05-08T11:40:44.046Z,22.7
2016-05-08T11:41:45.174Z,22.8
2016-05-08T11:42:44.098Z,22.7
2016-05-08T11:43:42.913Z,22.7
2016-05-08T11:44:41.698Z,22.7
2016-05-08T11:45:40.762Z,22.7
2016-05-08T11:46:40.046Z,22.7
2016-05-08T11:47:39.361Z,22.7
2016-05-08T11:48:39.069Z,22.7
2016-05-08T11:49:38.801Z,22.7
2016-05-08T11:50:38.970Z,22.6
2016-05-08T11:51:40.031Z,22.6
2016-05-08T11:52:40.637Z,22.6
2016-05-08T11:53:41.490Z,22.6
2016-05-08T11:54:42.586Z,22.5
2016-05-08T11:55:43.915Z,22.5
2016-05-08T11:56:45.511Z,22.6
2016-05-08T11:57:43.310Z,22.5
2016-05-08T11:58:41.227Z,22.5
2016-05-08T11:59:39.266Z,22.5
2016-05-08T12:00:37.493Z,22.5
2016-05-08T12:01:38.641Z,22.5
2016-05-08T12:02:37.071Z,22.5
2016-05-08T12:03:35.874Z,22.5
2016-05-08T12:04:34.925Z,22.5
2016-05-08T12:05:33.977Z,22.5
2016-05-08T12:06:33.278Z,22.5
2016-05-08T12:07:32.580Z,22.5
2016-05-08T12:08:32.145Z,22.5
2016-05-08T12:09:31.680Z,22.5
2016-05-08T12:10:31.544Z,22.5
2016-05-08T12:11:32.594Z,22.5
2016-05-08T12:12:32.754Z,22.5
2016-05-08T12:13:32.693Z,22.4
2016-05-08T12:14:33.008Z,22.4
2016-05-08T12:15:33.340Z,22.4
2016-05-08T12:16:33.905Z,22.4
2016-05-08T12:17:34.470Z,22.4
2016-05-08T12:18:35.035Z,22.4
2016-05-08T12:19:35.617Z,22.4
2016-05-08T12:20:36.495Z,22.4
2016-05-08T12:21:37.497Z,22.3
2016-05-08T12:22:38.343Z,22.4
2016-05-08T12:23:39.158Z,22.4
2016-05-08T12:24:39.989Z,22.4
2016-05-08T12:25:41.179Z,22.4
2016-05-08T12:26:42.135Z,22.4
2016-05-08T12:27:43.216Z,22.4
2016-05-08T12:28:44.500Z,22.4
2016-05-08T12:29:45.361Z,22.4
2016-05-08T12:30:46.739Z,22.4
2016-05-08T12:31:47.774Z,22.5
2016-05-08T12:32:49.104Z,22.5
2016-05-08T12:33:50.544Z,22.5
2016-05-08T12:34:51.753Z,22.5
2016-05-08T12:35:53.085Z,22.5
2016-05-08T12:36:54.415Z,22.5
2016-05-08T12:37:55.871Z,22.5
2016-05-08T12:38:57.076Z,22.5
2016-05-08T12:39:58.657Z,22.5
2016-05-08T12:41:00.301Z,22.6
2016-05-08T12:42:01.318Z,22.5
2016-05-08T12:43:02.899Z,22.6
2016-05-08T12:44:04.496Z,22.6
2016-05-08T12:45:06.076Z,22.6
2016-05-08T12:46:03.861Z,22.6
2016-05-08T12:47:01.645Z,22.5
2016-05-08T12:47:59.412Z,22.5
2016-05-08T12:49:00.994Z,22.5
2016-05-08T12:50:02.449Z,22.5
2016-05-08T12:51:03.452Z,22.5
2016-05-08T12:52:04.471Z,22.5
2016-05-08T12:53:05.067Z,22.5
2016-05-08T12:54:05.367Z,22.5
2016-05-08T12:55:05.416Z,22.5
2016-05-08T12:56:05.481Z,22.5
2016-05-08T12:57:05.421Z,22.5
2016-05-08T12:58:04.627Z,22.5
2016-05-08T12:59:04.286Z,22.5
2016-05-08T13:00:03.461Z,22.5
2016-05-08T13:01:02.558Z,22.5
2016-05-08T13:02:03.700Z,22.5
2016-05-08T13:03:02.125Z,22.4
2016-05-08T13:04:00.409Z,22.4
2016-05-08T13:04:58.958Z,22.5
2016-05-08T13:05:57.493Z,22.4
2016-05-08T13:06:55.823Z,22.5
2016-05-08T13:07:57.357Z,22.5
2016-05-08T13:08:58.548Z,22.4
2016-05-08T13:09:59.379Z,22.5
2016-05-08T13:11:00.256Z,22.5
2016-05-08T13:12:01.164Z,22.5
2016-05-08T13:13:02.418Z,22.5
2016-05-08T13:14:03.561Z,22.5
2016-05-08T13:15:04.892Z,22.5
2016-05-08T13:16:06.222Z,22.5
2016-05-08T13:17:07.554Z,22.5
2016-05-08T13:18:08.993Z,22.6
2016-05-08T13:19:10.215Z,22.5
2016-05-08T13:20:11.545Z,22.5
2016-05-08T13:21:12.673Z,22.5
2016-05-08T13:22:13.708Z,22.5